首页
METAR-TAF:

METAR-TAF

机场 :

悉尼机场

悉尼, 澳大利亚

纬度: 33-57S, 经度: 151-11E, 海拔: 6米

当前天气观测

该预报发布于25分钟前的19:30 UTC
风速14节,风向南转南东
温度 17°C
湿度 88%
气压 1020 hPa
能见度10公里或以上
少量云层高于1000英尺
散云层高于2200英尺
多云层高于3800英尺

METAR: YSSY 071930Z 16014KT 9999 FEW010 SCT022 BKN038 17/15 Q1020 NOSIG

时间: 05:55 (19:55 UTC)

预报

该预报发布于2小时和51分钟前的17:04 UTC
预报有效从07日的 18点(UTC)到 09日的 00点(UTC)
风速8节,风向西转西北
能见度10公里或以上
散云层高于2500英尺
小阵雨
从 07日的 2300点(UTC)
风速15节,风向南转南东
能见度10公里或以上
少量云层高于1500英尺
散云层高于2500英尺
小阵雨
从 08日的 1200点(UTC)
风速10节,风向
能見度: 4000
散云层高于2500英尺
多云层高于1500英尺
小阵雨, 阵雨

TAF: YSSY 071704Z 0718/0900 29008KT 9999 -SHRA SCT025 FM072300 16015KT 9999 -SHRA FEW015 SCT025 FM081200 19010KT 9999 -SHRA SCT025 INTER 0801/0812 4000 SHRA BKN015

超过4000个机场的气象观测和天气预报(METAR&TAF报告)。

可查询的气象台以黄色和红色小点在地图上表示。

将鼠标移到小点上方,可查看气象台名称。

然后点击查看天气观测和预报。

如需切换地图:点击带黑十字的绿色按钮放大地图;点击带横线的绿色按钮缩小地图;或者点击绿色箭头查看邻近地区的地图。


METAR-TAF: